48II weather

Cedar Creek Airport
Cedarville, Indiana, United States

Public forecast

Using degrees Fahrenheit for public forecast. Weather courtesy of forecast.io.

METAR (pilot weather report)

Closest report is De Kalb County Airport, 7.2 nm (13.4 km) NNW. Retrieved 2019/04/21 17:35 UTC (8 minutes ago):

KGWB 211735Z AUTO 00000KT 10SM CLR 15/06 A3008 RMK AO2

TAF (pilot weather forecast)

Closest forecast is Fort Wayne International Airport, 14.9 nm (27.6 km) SSW. Retrieved 2019/04/21 12:24 UTC (5 hours ago):

TAF KSBN 211123Z 2112/2212 19007KT P6SM SCT100= TAF KFWA 211123Z 2112/2212 00000KT 4SM BR SCT003 FM211230 20006KT P6SM SCT100